Federal Oshima — VRVY8 — position and weather

sailwx.info

Track history (hours):
 
Tides and Currents Weather Stations Pressure Air Temp Water Temp Dewpoint Dewpoint Depression Visibility Wind Speed Wind Dir Waves Ship Positions

Federal Oshima

Last reported at 2014-Dec-19 01:33 UTC. Time now 2014-Dec-19 01:35 UTC.
Position N 51°20' E 003°49'.

Length 200 m; draft 6.8 m.

Type: Cargo ship. MMSI: 477675000.

Date/timePositionNaut miles runAvg speedWind from/ knotsBaromVisibWave heightAir tempDewpointWater temp
2014-Dec-19 01:33N 51°20' E 003°49'2 2.4
2014-Dec-19 00:33N 51°21' E 003°46'2 2.0
2014-Dec-18 23:34N 51°23' E 003°47'0 0.1
2014-Dec-18 22:32N 51°23' E 003°47'0 0.0
2014-Dec-18 21:32N 51°23' E 003°47'0 0.0
2014-Dec-18 20:32N 51°23' E 003°47'0 0.0
2014-Dec-18 19:32N 51°23' E 003°47'0 0.0
2014-Dec-18 18:32N 51°23' E 003°47'0 0.0
2014-Dec-18 17:32N 51°23' E 003°47'0 0.1
2014-Dec-18 16:32N 51°23' E 003°47'0 0.1
2014-Dec-18 15:32N 51°24' E 003°47'0 0.1
2014-Dec-18 14:32N 51°23' E 003°46'1 1.1
2014-Dec-18 13:33N 51°24' E 003°45'8 7.7
2014-Dec-18 12:33N 51°25' E 003°33'1211.6
2014-Dec-18 11:34N 51°24' E 003°14'1312.7
2014-Dec-18 10:34N 51°22' E 002°54'1211.8
2014-Dec-18 09:32N 51°22' E 002°35'10 9.9
2014-Dec-18 08:33N 51°19' E 002°20'1212.5
2014-Dec-18 07:33N 51°13' E 002°03'1212.0
2014-Dec-18 06:33N 51°07' E 001°46'1212.3
2014-Dec-18 05:34N 50°58' E 001°33'  
Track history (hours):
 
Tides and Currents Weather Stations Pressure Air Temp Water Temp Dewpoint Dewpoint Depression Visibility Wind Speed Wind Dir Waves Ship Positions

Federal Oshima

Last reported at 2014-Dec-19 01:33 UTC. Time now 2014-Dec-19 01:35 UTC.
Position N 51°20' E 003°49'.

Length 200 m; draft 6.8 m.

Type: Cargo ship. MMSI: 477675000.

Date/timePositionNaut miles runAvg speedWind from/ knotsBaromVisibWave heightAir tempDewpointWater temp
2014-Dec-19 01:33N 51°20' E 003°49'2 2.4
2014-Dec-19 00:33N 51°21' E 003°46'2 2.0
2014-Dec-18 23:34N 51°23' E 003°47'0 0.1
2014-Dec-18 22:32N 51°23' E 003°47'0 0.0
2014-Dec-18 21:32N 51°23' E 003°47'0 0.0
2014-Dec-18 20:32N 51°23' E 003°47'0 0.0
2014-Dec-18 19:32N 51°23' E 003°47'0 0.0
2014-Dec-18 18:32N 51°23' E 003°47'0 0.0
2014-Dec-18 17:32N 51°23' E 003°47'0 0.1
2014-Dec-18 16:32N 51°23' E 003°47'0 0.1
2014-Dec-18 15:32N 51°24' E 003°47'0 0.1
2014-Dec-18 14:32N 51°23' E 003°46'1 1.1
2014-Dec-18 13:33N 51°24' E 003°45'8 7.7
2014-Dec-18 12:33N 51°25' E 003°33'1211.6
2014-Dec-18 11:34N 51°24' E 003°14'1312.7
2014-Dec-18 10:34N 51°22' E 002°54'1211.8
2014-Dec-18 09:32N 51°22' E 002°35'10 9.9
2014-Dec-18 08:33N 51°19' E 002°20'1212.5
2014-Dec-18 07:33N 51°13' E 002°03'1212.0
2014-Dec-18 06:33N 51°07' E 001°46'1212.3
2014-Dec-18 05:34N 50°58' E 001°33'  

Dump ship's entire track history